createdAt,value
2022-08-07T00:00:12.470Z,8.8
2022-08-07T00:03:13.132Z,8.8
2022-08-07T00:06:12.826Z,8.8
2022-08-07T00:10:04.810Z,8.8
2022-08-07T00:12:15.236Z,8.6
2022-08-07T00:15:10.826Z,8.5
2022-08-07T00:18:23.906Z,8.4
2022-08-07T00:24:11.112Z,8.4
2022-08-07T00:27:19.651Z,8.4
2022-08-07T00:30:29.610Z,8.3
2022-08-07T00:33:14.044Z,8.2
2022-08-07T00:36:09.569Z,8.1
2022-08-07T00:39:16.397Z,8.1
2022-08-07T00:42:14.608Z,8
2022-08-07T00:45:24.879Z,7.9
2022-08-07T00:48:34.214Z,7.9
2022-08-07T00:51:10.398Z,7.9
2022-08-07T00:54:14.392Z,7.9
2022-08-07T00:57:11.341Z,8.1
2022-08-07T01:00:10.174Z,8.1
2022-08-07T01:03:14.884Z,8.1
2022-08-07T01:06:10.433Z,8
2022-08-07T01:12:44.805Z,7.7
2022-08-07T01:15:19.989Z,7.6
2022-08-07T01:18:19.758Z,7.6
2022-08-07T01:21:28.493Z,7.5
2022-08-07T01:24:12.250Z,7.4
2022-08-07T01:27:34.850Z,7.4
2022-08-07T01:30:12.888Z,7.4
2022-08-07T01:33:12.428Z,7.3
2022-08-07T01:36:44.045Z,7.3
2022-08-07T01:39:18.231Z,7.2
2022-08-07T01:45:22.672Z,7.2
2022-08-07T01:48:49.660Z,7.2
2022-08-07T01:54:45.170Z,7.4
2022-08-07T01:57:29.208Z,7.4
2022-08-07T02:00:30.902Z,7.2
2022-08-07T02:03:55.662Z,7.2
2022-08-07T02:06:37.023Z,7.1
2022-08-07T02:09:33.425Z,7.1
2022-08-07T02:12:31.244Z,7
2022-08-07T02:15:14.159Z,6.9
2022-08-07T02:18:11.253Z,6.9
2022-08-07T02:21:22.944Z,6.9
2022-08-07T02:24:19.834Z,7
2022-08-07T02:27:15.172Z,6.9
2022-08-07T02:30:18.589Z,6.9
2022-08-07T02:33:24.768Z,6.9
2022-08-07T02:36:43.522Z,6.9
2022-08-07T02:42:18.857Z,6.7
2022-08-07T02:48:23.084Z,6.7
2022-08-07T02:51:42.267Z,6.7
2022-08-07T02:54:09.300Z,6.7
2022-08-07T02:57:15.680Z,6.6
2022-08-07T03:00:20.397Z,6.6
2022-08-07T03:03:42.097Z,6.5
2022-08-07T03:06:35.070Z,6.6
2022-08-07T03:09:13.242Z,6.6
2022-08-07T03:12:33.252Z,6.6
2022-08-07T03:15:59.072Z,6.5
2022-08-07T03:18:10.888Z,6.5
2022-08-07T03:21:13.621Z,6.6
2022-08-07T03:24:38.965Z,6.6
2022-08-07T03:27:13.160Z,6.5
2022-08-07T03:30:15.103Z,6.5
2022-08-07T03:33:12.902Z,6.6
2022-08-07T03:36:12.949Z,6.7
2022-08-07T03:42:10.606Z,6.4
2022-08-07T03:45:12.015Z,6.4
2022-08-07T03:48:15.656Z,6.3
2022-08-07T03:51:14.873Z,6.2
2022-08-07T04:00:16.978Z,6.2
2022-08-07T04:03:18.336Z,6.1
2022-08-07T04:06:38.789Z,6.2
2022-08-07T04:09:22.938Z,6.4
2022-08-07T04:12:39.853Z,6.5
2022-08-07T04:15:14.041Z,6.6
2022-08-07T04:21:11.679Z,6.5
2022-08-07T04:24:43.191Z,6.5
2022-08-07T04:27:27.959Z,6.6
2022-08-07T04:30:58.692Z,6.7
2022-08-07T04:33:17.771Z,6.9
2022-08-07T04:36:16.945Z,7
2022-08-07T04:39:12.703Z,7.2
2022-08-07T04:42:10.015Z,7.2
2022-08-07T04:45:44.354Z,7.4
2022-08-07T04:48:21.253Z,7.3
2022-08-07T04:51:20.508Z,7.3
2022-08-07T04:54:16.683Z,7.4
2022-08-07T05:00:40.881Z,8.2
2022-08-07T05:06:43.162Z,9.5
2022-08-07T05:09:12.901Z,9.4
2022-08-07T05:12:26.674Z,9.4
2022-08-07T05:15:25.602Z,9.4
2022-08-07T05:18:18.639Z,9.3
2022-08-07T05:21:10.524Z,9.5
2022-08-07T05:24:09.226Z,9.9
2022-08-07T05:30:15.009Z,11.6
2022-08-07T05:33:14.230Z,12.8
2022-08-07T05:36:22.472Z,13.9
2022-08-07T05:42:42.228Z,15.8
2022-08-07T05:48:15.595Z,17.1
2022-08-07T05:51:11.192Z,17.8
2022-08-07T05:57:10.055Z,18.4
2022-08-07T06:00:18.301Z,18.9
2022-08-07T06:03:11.377Z,19
2022-08-07T06:06:21.718Z,19.6
2022-08-07T06:09:12.688Z,19.9
2022-08-07T06:12:09.437Z,19.8
2022-08-07T06:15:22.193Z,19.9
2022-08-07T06:18:10.948Z,19.9
2022-08-07T06:27:44.593Z,21
2022-08-07T06:30:35.381Z,21.2
2022-08-07T06:33:20.120Z,21.4
2022-08-07T06:36:46.044Z,21.7
2022-08-07T06:42:14.131Z,22.4
2022-08-07T06:45:13.411Z,22.2
2022-08-07T06:48:13.530Z,23.1
2022-08-07T06:51:51.615Z,22.8
2022-08-07T06:57:09.436Z,23.4
2022-08-07T07:00:30.521Z,23.4
2022-08-07T07:03:56.337Z,23.4
2022-08-07T07:06:28.815Z,23.7
2022-08-07T07:09:18.887Z,24.1
2022-08-07T07:12:38.034Z,24.3
2022-08-07T07:15:35.945Z,24.7
2022-08-07T07:18:12.387Z,25.2
2022-08-07T07:21:40.165Z,25.1
2022-08-07T07:24:23.961Z,25.4
2022-08-07T07:27:11.606Z,25.9
2022-08-07T07:30:44.155Z,25
2022-08-07T07:33:11.565Z,24.7
2022-08-07T07:36:34.305Z,24.6
2022-08-07T07:39:10.073Z,25.2
2022-08-07T07:42:35.155Z,24.9
2022-08-07T07:45:09.760Z,24.8
2022-08-07T07:48:37.529Z,24.8
2022-08-07T07:51:21.940Z,25.3
2022-08-07T07:54:14.891Z,26.1
2022-08-07T07:57:13.264Z,26.1
2022-08-07T08:00:21.260Z,26.1
2022-08-07T08:06:13.716Z,26.1
2022-08-07T08:09:15.687Z,26.3
2022-08-07T08:12:52.812Z,27.3
2022-08-07T08:15:14.372Z,27.7
2022-08-07T08:18:31.065Z,27.8
2022-08-07T08:21:14.171Z,27.3
2022-08-07T08:24:47.614Z,27.9
2022-08-07T08:27:18.849Z,27.8
2022-08-07T08:30:21.846Z,27.4
2022-08-07T08:33:18.938Z,26.9
2022-08-07T08:36:14.706Z,27.4
2022-08-07T08:39:17.599Z,27.5
2022-08-07T08:42:14.782Z,27.4
2022-08-07T08:45:19.723Z,26.9
2022-08-07T08:48:17.608Z,26.9
2022-08-07T08:54:13.609Z,27.4
2022-08-07T08:57:12.186Z,27.4
2022-08-07T09:00:09.645Z,27.6
2022-08-07T09:03:22.301Z,28.1
2022-08-07T09:06:13.578Z,27.1
2022-08-07T09:09:38.702Z,26.9
2022-08-07T09:12:42.186Z,27.4
2022-08-07T09:18:32.865Z,29
2022-08-07T09:27:24.501Z,29.3
2022-08-07T09:30:30.247Z,29.3
2022-08-07T09:36:18.421Z,29.9
2022-08-07T09:42:35.403Z,29.9
2022-08-07T09:54:27.131Z,29.3
2022-08-07T09:57:15.829Z,28.9
2022-08-07T10:00:18.748Z,28.5
2022-08-07T10:06:29.669Z,28.9
2022-08-07T10:09:17.324Z,29.2
2022-08-07T10:12:30.819Z,29.1
2022-08-07T10:15:18.498Z,29.4
2022-08-07T10:18:14.055Z,29.7
2022-08-07T10:24:25.869Z,29.9
2022-08-07T10:27:19.847Z,29.3
2022-08-07T10:30:18.524Z,28
2022-08-07T10:33:13.023Z,26.8
2022-08-07T10:36:38.635Z,25.6
2022-08-07T10:39:16.344Z,24.6
2022-08-07T10:42:43.378Z,24.1
2022-08-07T10:45:12.593Z,23.7
2022-08-07T10:48:20.265Z,23.5
2022-08-07T10:54:09.235Z,23.2
2022-08-07T10:57:11.560Z,23.2
2022-08-07T11:00:11.611Z,23.2
2022-08-07T11:03:18.537Z,23.1
2022-08-07T11:06:21.804Z,23.4
2022-08-07T11:12:15.023Z,27.1
2022-08-07T11:15:31.725Z,28.1
2022-08-07T11:18:19.822Z,28.4
2022-08-07T11:21:11.605Z,28.7
2022-08-07T11:24:13.819Z,28.4
2022-08-07T11:27:15.571Z,27
2022-08-07T11:30:48.171Z,26.1
2022-08-07T11:33:48.797Z,25.8
2022-08-07T11:36:30.731Z,25.5
2022-08-07T11:39:23.209Z,26.2
2022-08-07T11:42:31.812Z,27.8
2022-08-07T11:45:23.676Z,29
2022-08-07T11:48:39.817Z,29.6
2022-08-07T11:51:44.796Z,30.2
2022-08-07T11:54:25.336Z,30.7
2022-08-07T11:57:16.913Z,30.6
2022-08-07T12:00:36.056Z,30.8
2022-08-07T12:03:46.553Z,30.8
2022-08-07T12:09:22.563Z,30.4
2022-08-07T12:12:21.555Z,30.3
2022-08-07T12:15:46.764Z,29.9
2022-08-07T12:18:33.814Z,29.4
2022-08-07T12:22:36.864Z,29.3
2022-08-07T12:30:13.951Z,28.2
2022-08-07T12:34:01.594Z,28.3
2022-08-07T12:36:17.658Z,27.2
2022-08-07T12:39:53.765Z,26.4
2022-08-07T12:42:18.024Z,25.6
2022-08-07T12:45:16.668Z,24.6
2022-08-07T12:48:54.099Z,24
2022-08-07T12:51:24.253Z,23.8
2022-08-07T12:58:00.579Z,23.3
2022-08-07T13:00:35.881Z,23.2
2022-08-07T13:04:00.617Z,23.4
2022-08-07T13:06:34.922Z,23.4
2022-08-07T13:12:25.795Z,23.2
2022-08-07T13:15:11.017Z,23.1
2022-08-07T13:18:10.667Z,23.3
2022-08-07T13:21:23.618Z,24.4
2022-08-07T13:24:18.534Z,25.1
2022-08-07T13:27:14.856Z,25.8
2022-08-07T13:30:49.213Z,25.8
2022-08-07T13:36:27.862Z,26.4
2022-08-07T13:42:11.128Z,26.9
2022-08-07T13:48:43.123Z,26.8
2022-08-07T13:54:22.520Z,26.4
2022-08-07T13:57:22.433Z,26.2
2022-08-07T14:00:28.362Z,26.2
2022-08-07T14:03:15.933Z,26.7
2022-08-07T14:06:09.227Z,26.7
2022-08-07T14:12:29.426Z,26.1
2022-08-07T14:15:10.694Z,25.8
2022-08-07T14:18:41.881Z,25.9
2022-08-07T14:24:13.524Z,25.4
2022-08-07T14:30:42.627Z,25.2
2022-08-07T14:36:19.212Z,26.5
2022-08-07T14:40:15.182Z,26.1
2022-08-07T14:43:01.612Z,25.7
2022-08-07T14:45:56.756Z,25.4
2022-08-07T14:48:29.277Z,25.7
2022-08-07T14:51:21.566Z,25.8
2022-08-07T14:54:56.178Z,26.5
2022-08-07T14:57:19.010Z,26.7
2022-08-07T15:00:32.417Z,26.2
2022-08-07T15:04:00.182Z,25.6
2022-08-07T15:12:32.407Z,26.9
2022-08-07T15:18:42.358Z,27.1
2022-08-07T15:27:11.987Z,27.2
2022-08-07T15:36:14.930Z,27.1
2022-08-07T15:39:15.290Z,26.4
2022-08-07T15:45:23.709Z,25.8
2022-08-07T15:48:22.630Z,26.2
2022-08-07T15:54:16.343Z,26.4
2022-08-07T15:57:39.545Z,26.3
2022-08-07T16:00:42.059Z,26.4
2022-08-07T16:03:46.185Z,26.4
2022-08-07T16:06:11.644Z,26.3
2022-08-07T16:09:24.472Z,26.4
2022-08-07T16:12:14.262Z,26.5
2022-08-07T16:15:58.128Z,26.6
2022-08-07T16:18:13.613Z,26.3
2022-08-07T16:24:37.435Z,26.4
2022-08-07T16:27:23.031Z,26.8
2022-08-07T16:30:41.005Z,26.2
2022-08-07T16:36:33.289Z,26.6
2022-08-07T16:39:20.795Z,26.1
2022-08-07T16:42:12.923Z,25.6
2022-08-07T16:48:15.700Z,24.9
2022-08-07T16:54:37.023Z,25
2022-08-07T17:00:32.063Z,24.7
2022-08-07T17:15:09.960Z,24.4
2022-08-07T17:18:16.304Z,23.9
2022-08-07T17:21:27.315Z,23.6
2022-08-07T17:24:16.273Z,23.4
2022-08-07T17:27:10.684Z,23.1
2022-08-07T17:30:33.721Z,22.9
2022-08-07T17:36:25.810Z,22.9
2022-08-07T17:39:20.082Z,22.8
2022-08-07T17:42:19.967Z,22.6
2022-08-07T17:45:19.180Z,22.6
2022-08-07T17:48:15.329Z,22.5
2022-08-07T17:51:21.462Z,22.5
2022-08-07T17:54:57.772Z,22.3
2022-08-07T17:57:24.931Z,22.2
2022-08-07T18:00:13.350Z,22.2
2022-08-07T18:03:28.462Z,22
2022-08-07T18:06:45.391Z,22
2022-08-07T18:12:39.011Z,21.6
2022-08-07T18:15:15.443Z,21.6
2022-08-07T18:24:35.298Z,21.3
2022-08-07T18:27:20.874Z,21.1
2022-08-07T18:30:47.922Z,20.9
2022-08-07T18:33:24.908Z,20.7
2022-08-07T18:36:12.541Z,20.4
2022-08-07T18:42:18.934Z,20.1
2022-08-07T18:51:09.179Z,19.4
2022-08-07T18:54:33.549Z,19.3
2022-08-07T19:00:43.358Z,18.8
2022-08-07T19:03:18.075Z,18.6
2022-08-07T19:06:18.583Z,18.5
2022-08-07T19:12:16.670Z,18.2
2022-08-07T19:18:18.331Z,17.8
2022-08-07T19:24:11.279Z,17.5
2022-08-07T19:33:37.084Z,17.1
2022-08-07T19:36:13.513Z,16.9
2022-08-07T19:39:57.161Z,16.8
2022-08-07T19:42:50.439Z,16.6
2022-08-07T19:48:26.838Z,16.1
2022-08-07T20:00:36.525Z,15.5
2022-08-07T20:03:38.741Z,15.4
2022-08-07T20:06:32.639Z,15.3
2022-08-07T20:12:47.887Z,15.1
2022-08-07T20:15:24.674Z,15.1
2022-08-07T20:18:36.805Z,15
2022-08-07T20:21:24.083Z,14.7
2022-08-07T20:24:12.888Z,14.6
2022-08-07T20:27:54.243Z,14.7
2022-08-07T20:30:27.602Z,14.7
2022-08-07T20:33:40.581Z,14.6
2022-08-07T20:36:17.091Z,14.4
2022-08-07T20:42:15.466Z,14.2
2022-08-07T20:48:11.034Z,14
2022-08-07T20:51:14.532Z,13.9
2022-08-07T20:54:34.381Z,13.8
2022-08-07T20:57:12.509Z,13.7
2022-08-07T21:00:24.764Z,13.7
2022-08-07T21:03:12.192Z,13.6
2022-08-07T21:06:33.744Z,13.7
2022-08-07T21:09:27.701Z,13.6
2022-08-07T21:12:32.902Z,13.5
2022-08-07T21:15:20.928Z,13.4
2022-08-07T21:18:50.479Z,13.3
2022-08-07T21:21:13.027Z,13.3
2022-08-07T21:24:11.926Z,13.3
2022-08-07T21:27:18.481Z,13.3
2022-08-07T21:30:11.282Z,13.3
2022-08-07T21:33:15.639Z,13.3
2022-08-07T21:36:42.193Z,13.3
2022-08-07T21:39:57.141Z,13.1
2022-08-07T21:42:55.239Z,12.9
2022-08-07T21:48:33.439Z,12.5
2022-08-07T21:51:24.654Z,12.4
2022-08-07T21:54:09.138Z,12.3
2022-08-07T21:57:16.035Z,12.1
2022-08-07T22:00:33.090Z,11.9
2022-08-07T22:03:18.901Z,11.8
2022-08-07T22:06:32.752Z,11.6
2022-08-07T22:09:15.575Z,11.6
2022-08-07T22:12:26.648Z,11.5
2022-08-07T22:18:10.760Z,11.5
2022-08-07T22:21:16.360Z,11.4
2022-08-07T22:24:10.466Z,11.4
2022-08-07T22:27:11.697Z,11.3
2022-08-07T22:30:16.764Z,11.4
2022-08-07T22:33:11.437Z,11.3
2022-08-07T22:36:14.097Z,11.4
2022-08-07T22:39:13.912Z,11.4
2022-08-07T22:51:13.310Z,11.2
2022-08-07T22:54:24.464Z,11.1
2022-08-07T22:57:12.391Z,11.1
2022-08-07T23:00:09.996Z,11
2022-08-07T23:03:14.933Z,11.1
2022-08-07T23:06:31.437Z,11.2
2022-08-07T23:12:35.703Z,11.1
2022-08-07T23:15:09.888Z,11.3
2022-08-07T23:18:11.121Z,11.3
2022-08-07T23:21:11.587Z,11.3
2022-08-07T23:24:29.892Z,11.2
2022-08-07T23:27:12.997Z,11.1
2022-08-07T23:36:17.175Z,10.9
2022-08-07T23:39:14.977Z,10.9
2022-08-07T23:42:24.279Z,10.8
2022-08-07T23:45:32.885Z,10.7
2022-08-07T23:48:18.572Z,10.6
2022-08-07T23:54:35.804Z,10.4
2022-08-07T23:57:20.675Z,10.4
